Terminal Aerodrome Forecast
Issued by NWS Spokane, WA

Home | Current Version | Previous Version | Text Only | Print | Product List | Glossary On
Versions: 1 2 3 4 5 6 7 8 9 10 11 12 13 14 15 16 17 18 19 20 21 22
000
FTUS46 KOTX 201341 AAA
TAFGEG
TAF AMD
KGEG 201341Z 2014/2112 20009KT P6SM BKN012 OVC050
     FM201600 18008KT P6SM BKN020
     FM202100 22009KT P6SM -SHRA BKN035 OVC050
     FM210300 21007KT P6SM BKN070
     FM210800 19003KT P6SM BKN050 OVC100=

USA.gov is the U.S. government's official web portal to all federal, state and local government web resources and services.